Grand Forks, ND (58201)

6:30 PM CDT on July 25, 2017 (GMT -0500)
Clover Drive | | Change Station

Elev 846 ft 47.90 °N, 97.03 °W | Updated 4 seconds ago

Clear
Clear
85.8 °F
Feels Like 86 °F
N
4.5
Wind Variable Wind from NE
Gusts 7.6 mph

Today
High -- | Low -- °F
--% Chance of Precip.
Yesterday
High -- | Low -- °F
Precip. -- in
Pressure 29.88 in
Visibility 10.0 miles
Clouds Few 5500 ft
Few 16000 ft
Scattered Clouds 25000 ft
Heat Index 86 °F
Dew Point 61 °F
Humidity 43%
Rainfall 0.00 in
Snow Depth Not available.
5:56 AM 9:12 PM
Waxing Crescent, 9% visible
METAR KGFK 252253Z 29012KT 10SM FEW055 FEW160 SCT250 29/14 A2988 RMK AO2 SLP116 T02940144
Pressure 29.88 in
Visibility 10.0 miles
Clouds Few 5500 ft
Few 16000 ft
Scattered Clouds 25000 ft
Heat Index 86 °F
Dew Point 61 °F
Humidity 43%
Rainfall 0.00 in
Snow Depth Not available.
5:56 AM 9:12 PM
Waxing Crescent, 9% visible
METAR KGFK 252253Z 29012KT 10SM FEW055 FEW160 SCT250 29/14 A2988 RMK AO2 SLP116 T02940144

Get Severe Weather Alerts

Thanks for signing up!

Be on the lookout for a verification email in your inbox.

You'll start receiving the daily forecast at 6 AM.

×

10-Day Weather Forecast

Almanac

Astronomy

Jul. 25, 2017 Rise Set
Actual Time
Civil Twilight
Nautical Twilight
Astronomical Twilight
Moon
Length of Visible Light
Length of Day
Tomorrow will be .
, % of the Moon is Illuminated

Today's Extremes

State Highs State Lows

Community

WunderPhotos

Category 6

Welcome to Category 6. This is the collective home for Weather Underground's featured writeups by Dr. Jeff Masters (right), Bob Henson (left), Chris Burt, and other regular contributors.

Nearby

Air Quality

  Air Quality AQ Index Pollutant
Not available.

Snow Depth

Station Depth Elevation

Earthquake Activity

City Distance Mag. Time & Date
Minimum magnitude displayed is 2.5.

Coastal Water Temperatures

Place Temperature

Stations

Nearby Weather Stations

Station Location Temp. Windchill Dew Point Humidity Wind Precip. Elev Updated Type
                   

Watches & Warnings

There are currently no watches in effect.